sensor_id;sensor_type;location;lat;lon;timestamp;pressure;altitude;pressure_sealevel;temperature;humidity
550;BME280;20066;48.764;9.176;2022-11-20T00:00:54;97691.16;;;8.71;nan
550;BME280;20066;48.764;9.176;2022-11-20T00:03:22;97681.13;;;9.28;66.21
550;BME280;20066;48.764;9.176;2022-11-20T00:05:53;97690.72;;;9.33;66.54
550;BME280;20066;48.764;9.176;2022-11-20T00:08:20;97682.66;;;9.36;64.63
550;BME280;20066;48.764;9.176;2022-11-20T00:10:48;97685.66;;;9.52;64.81
550;BME280;20066;48.764;9.176;2022-11-20T00:13:16;97693.38;;;9.40;64.63
550;BME280;20066;48.764;9.176;2022-11-20T00:15:45;97690.75;;;9.18;65.41
550;BME280;20066;48.764;9.176;2022-11-20T00:18:13;97685.34;;;9.33;64.86
550;BME280;20066;48.764;9.176;2022-11-20T00:20:40;97688.38;;;9.56;64.19
550;BME280;20066;48.764;9.176;2022-11-20T00:23:08;97686.53;;;8.96;66.62
550;BME280;20066;48.764;9.176;2022-11-20T00:25:36;97693.03;;;8.60;66.59
550;BME280;20066;48.764;9.176;2022-11-20T00:28:03;97691.53;;;8.69;66.95
550;BME280;20066;48.764;9.176;2022-11-20T00:30:31;97686.50;;;8.39;67.49
550;BME280;20066;48.764;9.176;2022-11-20T00:33:00;97681.97;;;8.82;66.92
550;BME280;20066;48.764;9.176;2022-11-20T00:35:29;97683.47;;;9.12;65.65
550;BME280;20066;48.764;9.176;2022-11-20T00:37:57;97680.44;;;8.85;65.83
550;BME280;20066;48.764;9.176;2022-11-20T00:40:25;97681.56;;;8.98;65.98
550;BME280;20066;48.764;9.176;2022-11-20T00:42:52;97686.19;;;8.94;65.55
550;BME280;20066;48.764;9.176;2022-11-20T00:45:20;97691.09;;;9.38;64.16
550;BME280;20066;48.764;9.176;2022-11-20T00:47:48;97689.63;;;8.70;65.84
550;BME280;20066;48.764;9.176;2022-11-20T00:50:17;97684.66;;;8.75;65.90
550;BME280;20066;48.764;9.176;2022-11-20T00:52:45;97687.91;;;7.91;68.96
550;BME280;20066;48.764;9.176;2022-11-20T00:55:12;97685.47;;;7.54;70.44
550;BME280;20066;48.764;9.176;2022-11-20T00:57:40;97685.59;;;7.79;70.93
550;BME280;20066;48.764;9.176;2022-11-20T01:00:09;97682.34;;;8.74;67.08
550;BME280;20066;48.764;9.176;2022-11-20T01:02:36;97685.75;;;8.53;67.11
550;BME280;20066;48.764;9.176;2022-11-20T01:05:04;97685.00;;;8.56;66.03
550;BME280;20066;48.764;9.176;2022-11-20T01:07:33;97689.84;;;7.97;68.51
550;BME280;20066;48.764;9.176;2022-11-20T01:10:01;97686.56;;;8.71;66.27
550;BME280;20066;48.764;9.176;2022-11-20T01:12:29;97678.84;;;8.45;65.11
550;BME280;20066;48.764;9.176;2022-11-20T01:14:57;97687.69;;;8.81;65.63
550;BME280;20066;48.764;9.176;2022-11-20T01:17:25;97688.50;;;8.71;65.63
550;BME280;20066;48.764;9.176;2022-11-20T01:19:52;97682.97;;;8.03;67.68
550;BME280;20066;48.764;9.176;2022-11-20T01:22:20;97686.13;;;8.51;66.86
550;BME280;20066;48.764;9.176;2022-11-20T01:24:49;97691.50;;;8.51;65.79
550;BME280;20066;48.764;9.176;2022-11-20T01:27:17;97695.50;;;7.74;66.84
550;BME280;20066;48.764;9.176;2022-11-20T01:29:44;97703.38;;;8.58;65.66
550;BME280;20066;48.764;9.176;2022-11-20T01:32:12;97696.84;;;8.41;65.92
550;BME280;20066;48.764;9.176;2022-11-20T01:34:40;97706.44;;;8.60;64.40
550;BME280;20066;48.764;9.176;2022-11-20T01:37:08;97699.97;;;9.10;63.20
550;BME280;20066;48.764;9.176;2022-11-20T01:39:35;97696.84;;;8.66;63.51
550;BME280;20066;48.764;9.176;2022-11-20T01:42:04;97702.16;;;8.16;66.32
550;BME280;20066;48.764;9.176;2022-11-20T01:44:52;97698.81;;;8.94;63.60
550;BME280;20066;48.764;9.176;2022-11-20T01:47:25;97695.72;;;9.06;63.55
550;BME280;20066;48.764;9.176;2022-11-20T01:49:57;97691.91;;;9.10;63.08
550;BME280;20066;48.764;9.176;2022-11-20T01:52:30;97692.31;;;8.95;63.98
550;BME280;20066;48.764;9.176;2022-11-20T01:55:04;97687.69;;;9.16;63.94
550;BME280;20066;48.764;9.176;2022-11-20T01:57:35;97703.41;;;8.82;65.37
550;BME280;20066;48.764;9.176;2022-11-20T02:00:06;97703.38;;;9.28;63.80
550;BME280;20066;48.764;9.176;2022-11-20T02:02:35;97703.03;;;8.95;65.48
550;BME280;20066;48.764;9.176;2022-11-20T02:05:11;97709.84;;;9.56;62.89
550;BME280;20066;48.764;9.176;2022-11-20T02:07:43;97704.88;;;9.40;64.35
550;BME280;20066;48.764;9.176;2022-11-20T02:10:11;97712.53;;;9.49;64.09
550;BME280;20066;48.764;9.176;2022-11-20T02:12:40;97710.66;;;9.32;63.65
550;BME280;20066;48.764;9.176;2022-11-20T02:15:25;97711.00;;;9.44;63.27
550;BME280;20066;48.764;9.176;2022-11-20T02:17:56;97717.91;;;9.38;63.18
550;BME280;20066;48.764;9.176;2022-11-20T02:20:23;97705.72;;;8.91;64.95
550;BME280;20066;48.764;9.176;2022-11-20T02:22:55;97710.63;;;9.46;63.39
550;BME280;20066;48.764;9.176;2022-11-20T02:25:26;97704.50;;;9.49;63.26
550;BME280;20066;48.764;9.176;2022-11-20T02:27:55;97702.22;;;9.22;63.31
550;BME280;20066;48.764;9.176;2022-11-20T02:30:23;97712.59;;;9.24;63.53
550;BME280;20066;48.764;9.176;2022-11-20T02:32:51;97712.53;;;9.49;63.74
550;BME280;20066;48.764;9.176;2022-11-20T02:35:43;97714.81;;;9.64;61.91
550;BME280;20066;48.764;9.176;2022-11-20T02:38:11;97711.84;;;8.88;64.53
550;BME280;20066;48.764;9.176;2022-11-20T02:40:40;97710.69;;;8.93;64.64
550;BME280;20066;48.764;9.176;2022-11-20T02:43:08;97714.50;;;9.30;63.60
550;BME280;20066;48.764;9.176;2022-11-20T02:45:36;97721.44;;;8.71;65.36
550;BME280;20066;48.764;9.176;2022-11-20T02:48:05;97714.16;;;8.79;65.46
550;BME280;20066;48.764;9.176;2022-11-20T02:50:33;97708.38;;;9.12;64.95
550;BME280;20066;48.764;9.176;2022-11-20T02:53:03;97704.50;;;9.35;63.25
550;BME280;20066;48.764;9.176;2022-11-20T02:55:31;97699.19;;;9.13;63.51
550;BME280;20066;48.764;9.176;2022-11-20T02:58:00;97707.56;;;9.40;63.34
550;BME280;20066;48.764;9.176;2022-11-20T03:00:28;97718.63;;;9.60;62.59
550;BME280;20066;48.764;9.176;2022-11-20T03:02:55;97708.69;;;9.43;63.02
550;BME280;20066;48.764;9.176;2022-11-20T03:05:23;97708.75;;;9.11;64.30
550;BME280;20066;48.764;9.176;2022-11-20T03:07:51;97713.00;;;8.90;64.73
550;BME280;20066;48.764;9.176;2022-11-20T03:10:18;97721.81;;;9.02;63.91
550;BME280;20066;48.764;9.176;2022-11-20T03:12:46;97721.03;;;8.69;65.13
550;BME280;20066;48.764;9.176;2022-11-20T03:15:15;97713.25;;;8.18;66.31
550;BME280;20066;48.764;9.176;2022-11-20T03:17:43;97719.44;;;8.33;66.69
550;BME280;20066;48.764;9.176;2022-11-20T03:22:39;97700.06;;;7.67;69.41
550;BME280;20066;48.764;9.176;2022-11-20T03:25:07;97700.38;;;7.51;69.73
550;BME280;20066;48.764;9.176;2022-11-20T03:27:35;97705.22;;;7.28;70.64
550;BME280;20066;48.764;9.176;2022-11-20T03:30:04;97698.97;;;7.10;72.99
550;BME280;20066;48.764;9.176;2022-11-20T03:32:33;97698.56;;;7.04;72.77
550;BME280;20066;48.764;9.176;2022-11-20T03:35:01;97698.50;;;6.97;72.42
550;BME280;20066;48.764;9.176;2022-11-20T03:37:29;97692.75;;;6.95;72.89
550;BME280;20066;48.764;9.176;2022-11-20T03:39:56;97684.97;;;6.76;73.50
550;BME280;20066;48.764;9.176;2022-11-20T03:42:24;97689.75;;;7.04;72.75
550;BME280;20066;48.764;9.176;2022-11-20T03:45:09;97688.47;;;6.83;72.61
550;BME280;20066;48.764;9.176;2022-11-20T03:47:38;97687.00;;;6.86;73.60
550;BME280;20066;48.764;9.176;2022-11-20T03:50:07;97687.44;;;7.67;70.84
550;BME280;20066;48.764;9.176;2022-11-20T03:52:35;97687.31;;;7.43;71.34
550;BME280;20066;48.764;9.176;2022-11-20T03:55:03;97686.44;;;7.21;71.17
550;BME280;20066;48.764;9.176;2022-11-20T03:57:31;97684.44;;;6.59;74.00
550;BME280;20066;48.764;9.176;2022-11-20T03:59:58;97683.16;;;6.43;75.08
550;BME280;20066;48.764;9.176;2022-11-20T04:02:26;97682.25;;;6.72;73.83
550;BME280;20066;48.764;9.176;2022-11-20T04:04:55;97678.16;;;6.38;75.71
550;BME280;20066;48.764;9.176;2022-11-20T04:07:23;97682.84;;;6.51;74.20
550;BME280;20066;48.764;9.176;2022-11-20T04:09:51;97680.06;;;6.00;76.45
550;BME280;20066;48.764;9.176;2022-11-20T04:12:18;97681.63;;;6.05;75.72
550;BME280;20066;48.764;9.176;2022-11-20T04:14:46;97675.56;;;6.92;72.91
550;BME280;20066;48.764;9.176;2022-11-20T04:17:14;97676.03;;;6.17;74.84
550;BME280;20066;48.764;9.176;2022-11-20T04:19:42;97676.44;;;7.11;72.38
550;BME280;20066;48.764;9.176;2022-11-20T04:22:11;97675.66;;;7.10;72.43
550;BME280;20066;48.764;9.176;2022-11-20T04:24:38;97676.13;;;7.19;71.79
550;BME280;20066;48.764;9.176;2022-11-20T04:27:06;97684.00;;;6.98;71.86
550;BME280;20066;48.764;9.176;2022-11-20T04:29:34;97672.31;;;6.69;73.68
550;BME280;20066;48.764;9.176;2022-11-20T04:32:02;97670.84;;;7.33;70.92
550;BME280;20066;48.764;9.176;2022-11-20T04:34:29;97666.25;;;7.30;70.29
550;BME280;20066;48.764;9.176;2022-11-20T04:36:57;97672.22;;;7.82;69.56
550;BME280;20066;48.764;9.176;2022-11-20T04:39:26;97673.66;;;7.55;69.50
550;BME280;20066;48.764;9.176;2022-11-20T04:41:54;97680.59;;;7.73;69.02
550;BME280;20066;48.764;9.176;2022-11-20T04:44:35;97676.16;;;8.27;66.57
550;BME280;20066;48.764;9.176;2022-11-20T04:47:03;97680.75;;;8.30;66.68
550;BME280;20066;48.764;9.176;2022-11-20T04:49:31;97675.75;;;8.18;67.06
550;BME280;20066;48.764;9.176;2022-11-20T04:51:59;97677.69;;;8.28;66.28
550;BME280;20066;48.764;9.176;2022-11-20T04:54:28;97676.16;;;8.31;66.02
550;BME280;20066;48.764;9.176;2022-11-20T04:56:55;97673.38;;;7.88;67.38
550;BME280;20066;48.764;9.176;2022-11-20T04:59:23;97673.09;;;8.36;66.53
550;BME280;20066;48.764;9.176;2022-11-20T05:01:51;97668.72;;;7.67;67.60
550;BME280;20066;48.764;9.176;2022-11-20T05:04:19;97672.34;;;8.42;66.69
550;BME280;20066;48.764;9.176;2022-11-20T05:06:47;97663.06;;;7.87;68.35
550;BME280;20066;48.764;9.176;2022-11-20T05:09:14;97666.59;;;8.44;66.79
550;BME280;20066;48.764;9.176;2022-11-20T05:11:43;97664.69;;;8.44;65.74
550;BME280;20066;48.764;9.176;2022-11-20T05:14:16;97670.47;;;8.85;65.13
550;BME280;20066;48.764;9.176;2022-11-20T05:16:44;97672.75;;;8.41;66.41
550;BME280;20066;48.764;9.176;2022-11-20T05:19:12;97671.97;;;8.40;66.85
550;BME280;20066;48.764;9.176;2022-11-20T05:21:40;97675.03;;;8.53;65.91
550;BME280;20066;48.764;9.176;2022-11-20T05:24:08;97677.31;;;8.58;65.61
550;BME280;20066;48.764;9.176;2022-11-20T05:26:36;97668.88;;;8.17;66.48
550;BME280;20066;48.764;9.176;2022-11-20T05:29:05;97663.91;;;8.23;66.51
550;BME280;20066;48.764;9.176;2022-11-20T05:31:32;97669.06;;;7.59;68.00
550;BME280;20066;48.764;9.176;2022-11-20T05:34:00;97670.94;;;7.48;69.44
550;BME280;20066;48.764;9.176;2022-11-20T05:36:32;97662.28;;;7.07;71.55
550;BME280;20066;48.764;9.176;2022-11-20T05:39:00;97665.09;;;7.28;71.05
550;BME280;20066;48.764;9.176;2022-11-20T05:41:28;97667.25;;;7.84;69.25
550;BME280;20066;48.764;9.176;2022-11-20T05:43:56;97669.56;;;7.96;68.33
550;BME280;20066;48.764;9.176;2022-11-20T05:46:26;97672.88;;;7.58;69.97
550;BME280;20066;48.764;9.176;2022-11-20T05:48:55;97673.00;;;7.10;71.51
550;BME280;20066;48.764;9.176;2022-11-20T05:51:24;97663.41;;;7.78;69.34
550;BME280;20066;48.764;9.176;2022-11-20T05:53:52;97663.13;;;8.22;68.03
550;BME280;20066;48.764;9.176;2022-11-20T05:56:21;97674.56;;;8.05;68.35
550;BME280;20066;48.764;9.176;2022-11-20T05:58:49;97673.75;;;7.83;67.78
550;BME280;20066;48.764;9.176;2022-11-20T06:01:18;97671.84;;;7.91;68.59
550;BME280;20066;48.764;9.176;2022-11-20T06:03:48;97673.06;;;7.21;71.50
550;BME280;20066;48.764;9.176;2022-11-20T06:06:19;97663.22;;;6.77;73.18
550;BME280;20066;48.764;9.176;2022-11-20T06:08:47;97671.44;;;7.06;71.98
550;BME280;20066;48.764;9.176;2022-11-20T06:11:16;97674.47;;;7.69;69.48
550;BME280;20066;48.764;9.176;2022-11-20T06:13:44;97673.72;;;7.00;72.02
550;BME280;20066;48.764;9.176;2022-11-20T06:16:14;97673.66;;;6.93;72.32
550;BME280;20066;48.764;9.176;2022-11-20T06:18:42;97677.34;;;7.32;71.73
550;BME280;20066;48.764;9.176;2022-11-20T06:21:13;97672.53;;;6.97;72.50
550;BME280;20066;48.764;9.176;2022-11-20T06:23:42;97671.38;;;7.60;71.32
550;BME280;20066;48.764;9.176;2022-11-20T06:26:12;97670.34;;;7.14;72.47
550;BME280;20066;48.764;9.176;2022-11-20T06:28:41;97662.22;;;6.92;72.39
550;BME280;20066;48.764;9.176;2022-11-20T06:31:10;97668.44;;;7.14;72.46
550;BME280;20066;48.764;9.176;2022-11-20T06:33:39;97655.47;;;7.16;72.45
550;BME280;20066;48.764;9.176;2022-11-20T06:36:07;97658.72;;;6.85;73.08
550;BME280;20066;48.764;9.176;2022-11-20T06:38:38;97647.22;;;6.81;73.98
550;BME280;20066;48.764;9.176;2022-11-20T06:41:08;97654.31;;;7.14;71.18
550;BME280;20066;48.764;9.176;2022-11-20T06:43:38;97652.56;;;7.46;70.60
550;BME280;20066;48.764;9.176;2022-11-20T06:46:06;97658.94;;;7.20;71.25
550;BME280;20066;48.764;9.176;2022-11-20T06:48:34;97661.97;;;7.19;71.60
550;BME280;20066;48.764;9.176;2022-11-20T06:51:03;97650.84;;;6.58;73.30
550;BME280;20066;48.764;9.176;2022-11-20T06:53:31;97661.53;;;7.10;72.20
550;BME280;20066;48.764;9.176;2022-11-20T06:56:00;97653.44;;;6.95;72.74
550;BME280;20066;48.764;9.176;2022-11-20T06:58:29;97654.47;;;7.46;71.37
550;BME280;20066;48.764;9.176;2022-11-20T07:00:58;97655.72;;;6.97;72.22
550;BME280;20066;48.764;9.176;2022-11-20T07:03:26;97663.50;;;7.16;71.79
550;BME280;20066;48.764;9.176;2022-11-20T07:05:54;97672.19;;;7.75;70.23
550;BME280;20066;48.764;9.176;2022-11-20T07:08:23;97663.25;;;7.43;70.94
550;BME280;20066;48.764;9.176;2022-11-20T07:10:51;97678.22;;;7.54;69.97
550;BME280;20066;48.764;9.176;2022-11-20T07:13:20;97679.63;;;7.30;70.05
550;BME280;20066;48.764;9.176;2022-11-20T07:15:48;97679.06;;;7.69;70.02
550;BME280;20066;48.764;9.176;2022-11-20T07:18:16;97675.00;;;7.24;70.91
550;BME280;20066;48.764;9.176;2022-11-20T07:20:44;97671.75;;;7.66;69.81
550;BME280;20066;48.764;9.176;2022-11-20T07:23:11;97668.03;;;7.85;69.50
550;BME280;20066;48.764;9.176;2022-11-20T07:25:39;97672.50;;;6.94;71.78
550;BME280;20066;48.764;9.176;2022-11-20T07:28:07;97674.25;;;7.23;71.59
550;BME280;20066;48.764;9.176;2022-11-20T07:30:38;97672.06;;;7.47;69.96
550;BME280;20066;48.764;9.176;2022-11-20T07:33:06;97678.38;;;7.14;71.60
550;BME280;20066;48.764;9.176;2022-11-20T07:35:33;97686.38;;;7.79;69.34
550;BME280;20066;48.764;9.176;2022-11-20T07:38:02;97682.59;;;7.94;68.07
550;BME280;20066;48.764;9.176;2022-11-20T07:40:30;97684.84;;;7.85;69.35
550;BME280;20066;48.764;9.176;2022-11-20T07:42:58;97688.75;;;8.09;68.47
550;BME280;20066;48.764;9.176;2022-11-20T07:45:25;97684.03;;;7.74;69.39
550;BME280;20066;48.764;9.176;2022-11-20T07:47:54;97677.47;;;7.61;69.99
550;BME280;20066;48.764;9.176;2022-11-20T07:50:22;97677.44;;;7.47;70.87
550;BME280;20066;48.764;9.176;2022-11-20T07:52:50;97684.78;;;7.74;70.38
550;BME280;20066;48.764;9.176;2022-11-20T07:55:18;97682.31;;;7.30;70.35
550;BME280;20066;48.764;9.176;2022-11-20T07:57:46;97695.22;;;8.04;69.09
550;BME280;20066;48.764;9.176;2022-11-20T08:00:21;97689.97;;;8.58;66.98
550;BME280;20066;48.764;9.176;2022-11-20T08:02:49;97691.09;;;8.32;67.96
550;BME280;20066;48.764;9.176;2022-11-20T08:05:18;97690.81;;;7.47;71.47
550;BME280;20066;48.764;9.176;2022-11-20T08:07:46;97700.09;;;7.74;70.43
550;BME280;20066;48.764;9.176;2022-11-20T08:10:15;97697.50;;;7.99;68.44
550;BME280;20066;48.764;9.176;2022-11-20T08:12:44;97700.78;;;7.53;70.77
550;BME280;20066;48.764;9.176;2022-11-20T08:15:29;97710.41;;;7.72;70.83
550;BME280;20066;48.764;9.176;2022-11-20T08:18:02;97704.44;;;8.14;68.74
550;BME280;20066;48.764;9.176;2022-11-20T08:20:51;97710.09;;;7.95;69.21
550;BME280;20066;48.764;9.176;2022-11-20T08:23:22;97710.13;;;7.98;69.99
550;BME280;20066;48.764;9.176;2022-11-20T08:25:50;97711.50;;;7.60;71.17
550;BME280;20066;48.764;9.176;2022-11-20T08:28:18;97714.00;;;8.15;69.72
550;BME280;20066;48.764;9.176;2022-11-20T08:30:48;97722.50;;;8.45;68.46
550;BME280;20066;48.764;9.176;2022-11-20T08:33:17;97714.63;;;7.73;70.83
550;BME280;20066;48.764;9.176;2022-11-20T08:35:44;97719.59;;;7.74;70.90
550;BME280;20066;48.764;9.176;2022-11-20T08:38:14;97712.00;;;7.84;69.95
550;BME280;20066;48.764;9.176;2022-11-20T08:40:41;97716.63;;;7.97;70.23
550;BME280;20066;48.764;9.176;2022-11-20T08:43:29;97715.16;;;8.14;69.66
550;BME280;20066;48.764;9.176;2022-11-20T08:45:57;97717.38;;;7.91;71.31
550;BME280;20066;48.764;9.176;2022-11-20T08:48:25;97722.97;;;7.64;72.44
550;BME280;20066;48.764;9.176;2022-11-20T08:50:52;97715.50;;;7.98;70.63
550;BME280;20066;48.764;9.176;2022-11-20T08:53:21;97719.06;;;8.59;68.16
550;BME280;20066;48.764;9.176;2022-11-20T08:55:49;97726.34;;;8.59;68.51
550;BME280;20066;48.764;9.176;2022-11-20T08:58:17;97719.13;;;8.77;68.88
550;BME280;20066;48.764;9.176;2022-11-20T09:00:45;97727.06;;;9.62;65.47
550;BME280;20066;48.764;9.176;2022-11-20T09:03:12;97726.00;;;8.67;67.49
550;BME280;20066;48.764;9.176;2022-11-20T09:05:40;97723.28;;;8.57;68.13
550;BME280;20066;48.764;9.176;2022-11-20T09:08:09;97729.84;;;8.84;67.99
550;BME280;20066;48.764;9.176;2022-11-20T09:10:38;97726.34;;;8.51;68.54
550;BME280;20066;48.764;9.176;2022-11-20T09:13:06;97734.44;;;8.76;67.80
550;BME280;20066;48.764;9.176;2022-11-20T09:15:34;97740.56;;;8.84;68.05
550;BME280;20066;48.764;9.176;2022-11-20T09:18:02;97729.41;;;8.61;67.66
550;BME280;20066;48.764;9.176;2022-11-20T09:20:30;97739.41;;;9.06;66.61
550;BME280;20066;48.764;9.176;2022-11-20T09:22:58;97745.16;;;9.22;66.29
550;BME280;20066;48.764;9.176;2022-11-20T09:25:26;97751.53;;;9.92;64.62
550;BME280;20066;48.764;9.176;2022-11-20T09:27:58;97748.25;;;8.93;67.83
550;BME280;20066;48.764;9.176;2022-11-20T09:30:27;97737.84;;;8.56;68.66
550;BME280;20066;48.764;9.176;2022-11-20T09:32:54;97732.75;;;8.11;70.12
550;BME280;20066;48.764;9.176;2022-11-20T09:35:22;97750.13;;;8.81;69.20
550;BME280;20066;48.764;9.176;2022-11-20T09:37:50;97752.03;;;9.34;67.66
550;BME280;20066;48.764;9.176;2022-11-20T09:40:21;97755.41;;;8.42;70.54
550;BME280;20066;48.764;9.176;2022-11-20T09:42:55;97756.66;;;9.23;67.75
550;BME280;20066;48.764;9.176;2022-11-20T09:45:35;97768.50;;;9.50;66.22
550;BME280;20066;48.764;9.176;2022-11-20T09:48:18;97763.16;;;9.29;66.55
550;BME280;20066;48.764;9.176;2022-11-20T09:50:53;97768.50;;;9.50;66.23
550;BME280;20066;48.764;9.176;2022-11-20T09:53:30;97763.56;;;8.71;68.99
550;BME280;20066;48.764;9.176;2022-11-20T09:56:03;97764.72;;;9.23;66.53
550;BME280;20066;48.764;9.176;2022-11-20T09:58:35;97763.56;;;9.20;66.21
550;BME280;20066;48.764;9.176;2022-11-20T10:01:10;97765.41;;;9.69;64.79
550;BME280;20066;48.764;9.176;2022-11-20T10:03:48;97757.81;;;9.33;65.57
550;BME280;20066;48.764;9.176;2022-11-20T10:06:21;97751.69;;;8.79;68.22
550;BME280;20066;48.764;9.176;2022-11-20T10:08:57;97755.50;;;8.85;67.56
550;BME280;20066;48.764;9.176;2022-11-20T10:11:35;97753.97;;;8.70;68.51
550;BME280;20066;48.764;9.176;2022-11-20T10:14:14;97759.34;;;8.91;66.54
550;BME280;20066;48.764;9.176;2022-11-20T10:16:56;97771.59;;;8.88;68.14
550;BME280;20066;48.764;9.176;2022-11-20T10:19:50;97768.94;;;8.99;67.99
550;BME280;20066;48.764;9.176;2022-11-20T10:22:34;97760.47;;;9.36;66.32
550;BME280;20066;48.764;9.176;2022-11-20T10:25:14;97771.94;;;8.62;70.73
550;BME280;20066;48.764;9.176;2022-11-20T10:28:15;97776.19;;;8.84;69.75
550;BME280;20066;48.764;9.176;2022-11-20T10:30:51;97783.06;;;8.75;70.28
550;BME280;20066;48.764;9.176;2022-11-20T10:33:25;97783.09;;;9.46;69.46
550;BME280;20066;48.764;9.176;2022-11-20T10:36:18;97780.28;;;8.43;74.23
550;BME280;20066;48.764;9.176;2022-11-20T10:38:54;97787.31;;;9.04;73.21
550;BME280;20066;48.764;9.176;2022-11-20T10:41:26;97784.63;;;9.29;72.18
550;BME280;20066;48.764;9.176;2022-11-20T10:44:04;97786.94;;;9.45;71.85
550;BME280;20066;48.764;9.176;2022-11-20T10:46:37;97783.47;;;9.62;70.79
550;BME280;20066;48.764;9.176;2022-11-20T10:49:13;97783.09;;;9.14;71.56
550;BME280;20066;48.764;9.176;2022-11-20T10:51:52;97775.41;;;9.44;71.17
550;BME280;20066;48.764;9.176;2022-11-20T10:54:26;97772.38;;;9.14;72.93
550;BME280;20066;48.764;9.176;2022-11-20T10:57:03;97765.88;;;8.79;73.52
550;BME280;20066;48.764;9.176;2022-11-20T10:59:57;97770.06;;;9.12;72.63
550;BME280;20066;48.764;9.176;2022-11-20T11:02:32;97771.22;;;9.01;73.96
550;BME280;20066;48.764;9.176;2022-11-20T11:05:12;97763.94;;;8.90;73.78
550;BME280;20066;48.764;9.176;2022-11-20T11:07:42;97760.50;;;8.94;74.09
550;BME280;20066;48.764;9.176;2022-11-20T11:10:15;97765.41;;;8.63;75.38
550;BME280;20066;48.764;9.176;2022-11-20T11:12:45;97764.31;;;8.82;74.23
550;BME280;20066;48.764;9.176;2022-11-20T11:15:24;97760.09;;;9.20;73.89
550;BME280;20066;48.764;9.176;2022-11-20T11:17:52;97761.25;;;9.40;72.07
550;BME280;20066;48.764;9.176;2022-11-20T11:20:22;97753.06;;;9.93;70.79
550;BME280;20066;48.764;9.176;2022-11-20T11:22:52;97744.53;;;10.13;70.02
550;BME280;20066;48.764;9.176;2022-11-20T11:25:27;97735.91;;;9.55;71.01
550;BME280;20066;48.764;9.176;2022-11-20T11:27:57;97728.22;;;9.57;72.37
550;BME280;20066;48.764;9.176;2022-11-20T11:30:27;97726.28;;;10.56;69.29
550;BME280;20066;48.764;9.176;2022-11-20T11:33:03;97728.13;;;11.14;65.85
550;BME280;20066;48.764;9.176;2022-11-20T11:35:43;97718.00;;;11.70;64.01
550;BME280;20066;48.764;9.176;2022-11-20T11:38:19;97720.91;;;10.52;67.47
550;BME280;20066;48.764;9.176;2022-11-20T11:40:48;97716.34;;;10.49;67.96
550;BME280;20066;48.764;9.176;2022-11-20T11:43:19;97711.34;;;10.48;67.04
550;BME280;20066;48.764;9.176;2022-11-20T11:46:20;97707.28;;;10.15;68.58
550;BME280;20066;48.764;9.176;2022-11-20T11:48:55;97705.06;;;10.68;65.92
550;BME280;20066;48.764;9.176;2022-11-20T11:51:26;97706.38;;;10.46;65.52
550;BME280;20066;48.764;9.176;2022-11-20T11:53:58;97694.28;;;10.10;66.45
550;BME280;20066;48.764;9.176;2022-11-20T11:56:28;97683.94;;;10.67;64.51
550;BME280;20066;48.764;9.176;2022-11-20T11:58:57;97677.59;;;9.63;65.97
550;BME280;20066;48.764;9.176;2022-11-20T12:01:32;97690.41;;;10.18;64.76
550;BME280;20066;48.764;9.176;2022-11-20T12:04:04;97690.78;;;10.16;63.74
550;BME280;20066;48.764;9.176;2022-11-20T12:06:37;97699.22;;;10.25;63.82
550;BME280;20066;48.764;9.176;2022-11-20T12:09:10;97683.88;;;10.15;63.58
550;BME280;20066;48.764;9.176;2022-11-20T12:11:43;97690.06;;;10.71;62.84
550;BME280;20066;48.764;9.176;2022-11-20T12:14:15;97674.66;;;11.19;59.87
550;BME280;20066;48.764;9.176;2022-11-20T12:16:46;97680.69;;;10.90;61.69
550;BME280;20066;48.764;9.176;2022-11-20T12:19:14;97673.78;;;11.30;59.24
550;BME280;20066;48.764;9.176;2022-11-20T12:21:52;97677.06;;;11.48;59.26
550;BME280;20066;48.764;9.176;2022-11-20T12:24:38;97678.75;;;10.42;59.65
550;BME280;20066;48.764;9.176;2022-11-20T12:27:39;97666.50;;;11.27;57.99
550;BME280;20066;48.764;9.176;2022-11-20T12:30:13;97666.34;;;11.41;57.21
550;BME280;20066;48.764;9.176;2022-11-20T12:33:05;97659.91;;;11.69;56.04
550;BME280;20066;48.764;9.176;2022-11-20T12:35:44;97659.66;;;11.18;56.21
550;BME280;20066;48.764;9.176;2022-11-20T12:38:36;97663.94;;;11.50;54.88
550;BME280;20066;48.764;9.176;2022-11-20T12:41:15;97668.66;;;9.91;57.96
550;BME280;20066;48.764;9.176;2022-11-20T12:44:13;97661.09;;;10.37;55.35
550;BME280;20066;48.764;9.176;2022-11-20T12:47:13;97665.22;;;10.56;54.52
550;BME280;20066;48.764;9.176;2022-11-20T12:49:52;97671.44;;;10.91;53.21
550;BME280;20066;48.764;9.176;2022-11-20T12:52:37;97674.16;;;11.28;52.20
550;BME280;20066;48.764;9.176;2022-11-20T12:55:30;97672.84;;;10.65;53.68
550;BME280;20066;48.764;9.176;2022-11-20T12:58:05;97673.28;;;11.76;51.10
550;BME280;20066;48.764;9.176;2022-11-20T13:00:38;97663.41;;;11.62;50.21
550;BME280;20066;48.764;9.176;2022-11-20T13:03:27;97662.66;;;11.61;50.60
550;BME280;20066;48.764;9.176;2022-11-20T13:06:08;97668.28;;;10.99;51.76
550;BME280;20066;48.764;9.176;2022-11-20T13:08:39;97665.16;;;11.04;51.28
550;BME280;20066;48.764;9.176;2022-11-20T13:11:14;97677.09;;;10.59;51.65
550;BME280;20066;48.764;9.176;2022-11-20T13:16:37;97674.06;;;10.98;51.76
550;BME280;20066;48.764;9.176;2022-11-20T13:19:10;97671.00;;;10.99;51.25
550;BME280;20066;48.764;9.176;2022-11-20T13:21:40;97663.00;;;11.30;50.41
550;BME280;20066;48.764;9.176;2022-11-20T13:24:22;97661.44;;;11.32;51.09
550;BME280;20066;48.764;9.176;2022-11-20T13:27:18;97661.75;;;10.56;51.62
550;BME280;20066;48.764;9.176;2022-11-20T13:29:59;97664.47;;;9.83;52.93
550;BME280;20066;48.764;9.176;2022-11-20T13:32:27;97649.53;;;10.48;51.81
550;BME280;20066;48.764;9.176;2022-11-20T13:35:00;97651.16;;;10.31;51.63
550;BME280;20066;48.764;9.176;2022-11-20T13:37:30;97656.31;;;9.97;52.14
550;BME280;20066;48.764;9.176;2022-11-20T13:40:11;97654.13;;;9.74;53.87
550;BME280;20066;48.764;9.176;2022-11-20T13:42:44;97646.59;;;10.21;53.50
550;BME280;20066;48.764;9.176;2022-11-20T13:45:23;97645.16;;;10.09;53.19
550;BME280;20066;48.764;9.176;2022-11-20T13:47:52;97651.28;;;10.06;53.94
550;BME280;20066;48.764;9.176;2022-11-20T13:50:27;97662.97;;;10.96;51.48
550;BME280;20066;48.764;9.176;2022-11-20T13:53:07;97653.31;;;10.57;54.01
550;BME280;20066;48.764;9.176;2022-11-20T13:55:47;97645.38;;;10.84;52.80
550;BME280;20066;48.764;9.176;2022-11-20T13:58:42;97642.84;;;10.11;53.94
550;BME280;20066;48.764;9.176;2022-11-20T14:01:16;97666.38;;;10.55;53.97